Time;durP1;ratioP1;P1;durP2;ratioP2;P2;SDS_P1;SDS_P2;PMS_P1;PMS_P2;Temp;Humidity;BMP_temperature;BMP_pressure;BME280_temperature;BME280_humidity;BME280_pressure;Samples;Min_cycle;Max_cycle;Signal;HPM_P1;HPM_P2
2021/12/19 07:59:18;;;;;;;33.85;20.58;;;;;;;6.10;100.00;103193.19;5309900;27;20684;-70
2021/12/19 08:01:49;;;;;;;38.08;22.15;;;;;;;6.09;100.00;103197.00;5289990;28;20078;-70
2021/12/19 08:04:21;;;;;;;32.25;19.65;;;;;;;6.09;100.00;103201.66;5298930;28;20024;-71
2021/12/19 08:06:52;;;;;;;32.15;19.25;;;;;;;6.06;100.00;103191.06;5283746;28;20028;-70
2021/12/19 08:09:35;;;;;;;28.27;18.85;;;;;;;6.06;100.00;103194.66;5285115;28;20043;-71
2021/12/19 08:12:07;;;;;;;30.20;16.67;;;;;;;6.03;100.00;103200.56;5291906;28;20071;-72
2021/12/19 08:14:39;;;;;;;26.27;16.52;;;;;;;5.98;100.00;103193.94;5300808;28;20028;-70
2021/12/19 08:17:10;;;;;;;23.52;15.77;;;;;;;6.00;100.00;103192.69;5286333;28;20043;-69
2021/12/19 08:19:41;;;;;;;19.33;14.07;;;;;;;6.03;100.00;103191.44;5290321;28;20028;-70
2021/12/19 08:22:14;;;;;;;24.25;14.60;;;;;;;6.06;100.00;103194.66;5295535;28;20080;-70
2021/12/19 08:24:47;;;;;;;19.85;13.98;;;;;;;6.17;100.00;103198.75;5279471;28;20032;-71
2021/12/19 08:27:18;;;;;;;24.58;12.77;;;;;;;6.05;100.00;103189.34;5279459;28;20024;-70
2021/12/19 08:29:51;;;;;;;20.60;12.93;;;;;;;6.10;100.00;103187.66;5284787;28;20051;-70
2021/12/19 08:32:23;;;;;;;17.85;10.93;;;;;;;6.18;100.00;103189.41;5283108;28;20021;-70
2021/12/19 08:34:55;;;;;;;17.90;11.40;;;;;;;6.22;100.00;103185.19;5286057;28;20031;-69
2021/12/19 08:37:26;;;;;;;15.90;10.63;;;;;;;6.15;100.00;103184.31;5296365;28;20486;-69
2021/12/19 08:39:57;;;;;;;15.63;11.70;;;;;;;6.27;100.00;103187.34;5296577;28;20021;-69
2021/12/19 08:42:31;;;;;;;16.45;11.68;;;;;;;6.17;100.00;103187.72;5289167;28;20372;-69
2021/12/19 08:45:04;;;;;;;18.95;13.10;;;;;;;6.19;100.00;103190.28;5300302;28;20031;-69
2021/12/19 08:47:36;;;;;;;20.45;14.20;;;;;;;6.14;100.00;103192.78;5299681;28;20025;-70
2021/12/19 08:50:09;;;;;;;21.38;14.02;;;;;;;6.24;100.00;103194.13;5298140;28;20040;-72
2021/12/19 08:52:42;;;;;;;21.88;14.57;;;;;;;6.29;100.00;103199.03;5300585;28;20047;-72
2021/12/19 08:55:13;;;;;;;21.42;15.18;;;;;;;6.24;100.00;103190.53;5299025;28;20115;-71
2021/12/19 08:57:45;;;;;;;25.23;15.60;;;;;;;6.25;100.00;103183.94;5287460;28;20135;-70
2021/12/19 09:00:18;;;;;;;22.10;14.60;;;;;;;6.35;100.00;103184.41;5315801;28;20107;-71
2021/12/19 09:02:53;;;;;;;21.20;13.93;;;;;;;6.38;100.00;103180.41;5320660;28;20028;-70
2021/12/19 09:05:27;;;;;;;21.93;14.97;;;;;;;6.54;100.00;103171.78;5307949;28;20523;-70
2021/12/19 09:07:58;;;;;;;19.67;14.15;;;;;;;6.45;100.00;103175.78;5308127;28;20634;-70
2021/12/19 09:10:30;;;;;;;22.15;13.48;;;;;;;6.38;100.00;103172.13;5288813;28;20078;-71
2021/12/19 09:13:02;;;;;;;18.80;13.57;;;;;;;6.43;100.00;103170.47;5286112;28;20025;-71
2021/12/19 09:15:33;;;;;;;21.70;13.13;;;;;;;6.46;100.00;103170.03;5296699;28;20031;-71
2021/12/19 09:18:04;;;;;;;16.85;12.02;;;;;;;6.53;100.00;103165.41;5292104;28;20468;-71
2021/12/19 09:20:36;;;;;;;18.60;12.40;;;;;;;6.53;100.00;103159.91;5304868;28;20085;-71
2021/12/19 09:23:08;;;;;;;17.85;12.13;;;;;;;6.59;100.00;103168.41;5297031;28;20016;-71
2021/12/19 09:25:40;;;;;;;15.60;10.65;;;;;;;6.51;100.00;103162.00;5297633;28;20020;-71
2021/12/19 09:28:11;;;;;;;12.85;9.70;;;;;;;6.51;100.00;103162.00;5294750;28;20016;-70
2021/12/19 09:30:43;;;;;;;11.40;8.93;;;;;;;6.49;100.00;103158.63;5293742;28;20016;-71
2021/12/19 09:33:14;;;;;;;12.43;9.05;;;;;;;6.53;100.00;103148.88;5293148;28;20082;-72
2021/12/19 09:35:45;;;;;;;10.70;8.65;;;;;;;6.61;100.00;103156.09;5285782;28;20021;-71
2021/12/19 09:38:20;;;;;;;13.27;8.48;;;;;;;6.58;100.00;103155.69;5284447;28;20081;-71
2021/12/19 09:40:58;;;;;;;9.90;6.55;;;;;;;6.58;100.00;103151.00;5286038;28;20032;-71
2021/12/19 09:43:41;;;;;;;8.13;5.88;;;;;;;6.56;100.00;103155.03;5294953;28;20028;-71
2021/12/19 09:46:16;;;;;;;6.10;4.78;;;;;;;6.45;100.00;103157.31;5285164;28;20053;-72
2021/12/19 09:48:49;;;;;;;7.88;5.47;;;;;;;6.48;100.00;103153.31;5302950;28;20032;-72
2021/12/19 09:51:20;;;;;;;7.10;5.10;;;;;;;6.50;100.00;103151.19;5304624;28;20081;-72
2021/12/19 09:53:51;;;;;;;7.57;4.43;;;;;;;6.41;100.00;103153.28;5305429;28;20024;-74
2021/12/19 09:56:23;;;;;;;5.65;4.43;;;;;;;6.46;100.00;103153.50;5290155;28;20263;-73
2021/12/19 09:58:54;;;;;;;6.85;4.72;;;;;;;6.44;100.00;103150.13;5293483;28;20109;-73
2021/12/19 10:01:26;;;;;;;6.07;4.38;;;;;;;6.57;100.00;103151.22;5285045;28;20414;-73
2021/12/19 10:03:57;;;;;;;7.82;5.90;;;;;;;6.57;100.00;103145.69;5299544;28;20024;-73
2021/12/19 10:06:30;;;;;;;7.10;5.30;;;;;;;6.51;100.00;103153.72;5284257;28;20021;-73
2021/12/19 10:09:12;;;;;;;6.38;5.28;;;;;;;6.51;100.00;103156.50;5290059;28;20089;-73
2021/12/19 10:12:12;;;;;;;9.63;5.47;;;;;;;6.57;100.00;103148.44;5287573;28;20384;-73
2021/12/19 10:14:45;;;;;;;9.57;6.43;;;;;;;6.53;100.00;103148.88;5284744;28;20035;-73
2021/12/19 10:17:18;;;;;;;9.68;6.50;;;;;;;6.55;100.00;103145.91;5292479;28;20024;-72
2021/12/19 10:19:55;;;;;;;8.65;6.50;;;;;;;6.60;100.00;103140.63;5295535;28;20017;-71
2021/12/19 10:22:38;;;;;;;9.02;6.70;;;;;;;6.55;100.00;103137.66;5283667;28;20028;-72
2021/12/19 10:25:31;;;;;;;7.68;6.32;;;;;;;6.65;100.00;103134.50;5284188;28;20028;-70
2021/12/19 10:28:06;;;;;;;8.35;6.72;;;;;;;6.70;100.00;103124.53;5292660;28;20375;-71
2021/12/19 10:30:43;;;;;;;10.90;6.82;;;;;;;6.66;100.00;103131.53;5284713;28;20376;-71
2021/12/19 10:33:24;;;;;;;7.45;6.00;;;;;;;6.64;100.00;103124.50;5284438;28;20048;-69
2021/12/19 10:35:58;;;;;;;9.68;7.30;;;;;;;6.62;100.00;103119.22;5284031;28;20440;-71
2021/12/19 10:38:31;;;;;;;10.45;6.88;;;;;;;6.62;100.00;103121.09;5290233;28;20024;-71
2021/12/19 10:41:16;;;;;;;8.63;6.15;;;;;;;6.69;100.00;103121.97;5301963;28;20021;-70
2021/12/19 10:43:58;;;;;;;8.98;6.43;;;;;;;6.68;100.00;103118.38;5302675;28;20063;-71
2021/12/19 10:46:33;;;;;;;6.88;5.68;;;;;;;6.66;100.00;103105.84;5300691;28;20146;-72
2021/12/19 10:49:20;;;;;;;7.72;6.60;;;;;;;6.78;100.00;103106.09;5287673;28;20410;-73
2021/12/19 10:51:51;;;;;;;12.80;7.05;;;;;;;6.78;100.00;103101.44;5300982;28;20020;-72
2021/12/19 10:54:23;;;;;;;8.40;6.40;;;;;;;6.73;100.00;103103.97;5297529;28;20031;-72
2021/12/19 10:57:13;;;;;;;7.05;6.05;;;;;;;6.78;100.00;103100.59;5304577;28;20081;-71
2021/12/19 10:59:45;;;;;;;8.85;6.78;;;;;;;6.83;100.00;103096.13;5295643;28;20032;-72
2021/12/19 11:02:32;;;;;;;8.02;6.63;;;;;;;6.87;100.00;103089.13;5301441;28;20028;-72
2021/12/19 11:05:04;;;;;;;61.83;54.97;;;;;;;6.93;100.00;103092.97;5295390;28;20047;-72
2021/12/19 11:07:36;;;;;;;14.77;10.10;;;;;;;6.92;100.00;103092.09;5299635;28;20099;-72
2021/12/19 11:10:28;;;;;;;8.40;6.40;;;;;;;6.97;100.00;103086.81;5303894;28;20020;-72
2021/12/19 11:13:10;;;;;;;8.77;7.15;;;;;;;6.99;100.00;103081.09;5290934;28;20028;-72
2021/12/19 11:15:42;;;;;;;7.25;6.35;;;;;;;6.96;100.00;103071.31;5289906;28;20169;-72
2021/12/19 11:18:14;;;;;;;6.22;5.57;;;;;;;7.02;99.63;103069.63;5290998;28;20051;-71
2021/12/19 11:20:45;;;;;;;8.38;6.30;;;;;;;7.05;99.85;103062.81;5287935;28;20021;-71
2021/12/19 11:23:16;;;;;;;6.68;5.53;;;;;;;7.06;99.20;103053.50;5291365;28;20467;-71
2021/12/19 11:25:49;;;;;;;6.65;5.88;;;;;;;7.06;99.13;103048.00;5289055;28;20663;-72
2021/12/19 11:28:20;;;;;;;7.47;6.57;;;;;;;7.08;98.96;103051.34;5293207;28;20403;-72
2021/12/19 11:30:53;;;;;;;8.48;6.45;;;;;;;7.08;98.55;103040.31;5291397;28;20047;-71
2021/12/19 11:33:49;;;;;;;6.82;5.88;;;;;;;7.08;99.36;103029.28;5287271;28;20025;-69
2021/12/19 11:36:20;;;;;;;7.75;5.97;;;;;;;6.98;99.05;103029.75;5291616;28;20040;-70
2021/12/19 11:38:53;;;;;;;5.88;5.10;;;;;;;6.92;99.25;103027.81;5292734;28;20467;-69
2021/12/19 11:41:24;;;;;;;6.70;5.78;;;;;;;6.91;99.24;103017.84;5293425;28;20020;-72
2021/12/19 11:44:07;;;;;;;9.25;5.38;;;;;;;6.99;99.24;103014.03;5294120;28;20336;-72
2021/12/19 11:46:46;;;;;;;7.00;6.30;;;;;;;6.96;99.33;103013.38;5289661;28;20032;-71
2021/12/19 11:49:22;;;;;;;6.28;5.53;;;;;;;7.02;99.06;103019.97;5291080;28;20475;-72
2021/12/19 11:52:30;;;;;;;8.40;5.45;;;;;;;7.02;99.02;103010.84;5291690;28;20039;-73
2021/12/19 11:55:18;;;;;;;5.30;4.68;;;;;;;7.03;98.37;103007.00;5291391;28;20043;-71
2021/12/19 11:58:08;;;;;;;12.32;10.23;;;;;;;7.10;98.11;103013.38;5286591;28;20391;-71
2021/12/19 12:01:01;;;;;;;18.20;12.98;;;;;;;7.18;97.75;103002.97;5288972;28;20036;-71
2021/12/19 12:03:38;;;;;;;6.75;4.60;;;;;;;7.10;97.32;103000.41;5274703;28;20028;-71
2021/12/19 12:06:20;;;;;;;4.88;4.20;;;;;;;7.12;98.23;103000.22;5282463;28;20062;-72
2021/12/19 12:09:23;;;;;;;7.15;6.05;;;;;;;7.16;98.41;102998.75;5516198;22;20032;-72
2021/12/19 12:12:00;;;;;;;6.32;4.95;;;;;;;7.16;97.98;102996.81;5282464;28;20021;-72
2021/12/19 12:14:39;;;;;;;8.45;6.03;;;;;;;7.24;97.64;103001.28;5282278;28;20578;-72
2021/12/19 12:17:21;;;;;;;5.25;4.75;;;;;;;7.29;98.16;102998.72;5282979;28;20113;-73
2021/12/19 12:19:58;;;;;;;6.43;4.88;;;;;;;7.33;97.01;102988.91;5281198;28;20384;-72
2021/12/19 12:22:43;;;;;;;8.60;7.53;;;;;;;7.35;96.46;102992.31;5282888;28;20032;-72
2021/12/19 12:25:40;;;;;;;7.25;4.45;;;;;;;7.41;96.02;102993.34;5281332;28;20065;-73
2021/12/19 12:28:15;;;;;;;5.40;4.57;;;;;;;7.31;95.14;102984.69;5282336;28;20028;-73
2021/12/19 12:30:54;;;;;;;4.60;4.15;;;;;;;7.31;95.42;102977.28;5283173;28;20020;-72
2021/12/19 12:33:27;;;;;;;5.05;3.72;;;;;;;7.31;95.09;102976.41;5282794;28;20108;-73
2021/12/19 12:35:58;;;;;;;4.20;3.80;;;;;;;7.34;95.21;102976.84;5282009;28;20031;-72
2021/12/19 12:38:30;;;;;;;4.50;4.07;;;;;;;7.39;95.43;102970.66;5281979;28;20072;-72
2021/12/19 12:41:08;;;;;;;5.78;4.03;;;;;;;7.40;95.27;102969.59;5279729;28;20051;-73
2021/12/19 12:43:40;;;;;;;4.35;3.72;;;;;;;7.47;95.92;102962.13;5269462;28;20020;-71
2021/12/19 12:46:15;;;;;;;6.82;4.75;;;;;;;7.49;95.42;102964.66;5285212;28;20032;-71
2021/12/19 12:48:55;;;;;;;7.68;4.63;;;;;;;7.42;94.83;102959.19;5290089;28;20107;-70
2021/12/19 12:51:40;;;;;;;4.82;3.83;;;;;;;7.40;93.73;102955.78;5286499;28;20032;-74
2021/12/19 12:54:22;;;;;;;12.07;10.80;;;;;;;7.36;94.58;102952.63;5286456;28;20020;-71
2021/12/19 12:56:57;;;;;;;5.13;4.57;;;;;;;7.28;94.35;102958.34;5285937;28;20033;-76
2021/12/19 12:59:32;;;;;;;5.30;4.80;;;;;;;7.17;94.22;102956.28;5285506;28;20107;-75
2021/12/19 13:02:15;;;;;;;5.47;4.30;;;;;;;7.21;94.25;102953.91;5285474;28;20025;-76
2021/12/19 13:04:51;;;;;;;4.80;4.20;;;;;;;7.27;93.91;102955.81;5286795;28;20026;-76
2021/12/19 13:07:24;;;;;;;8.38;5.70;;;;;;;7.30;94.76;102945.19;5285417;28;20040;-76
2021/12/19 13:10:00;;;;;;;5.82;4.88;;;;;;;7.32;94.59;102948.59;5284249;28;20075;-75
2021/12/19 13:12:36;;;;;;;5.63;4.22;;;;;;;7.31;93.80;102944.16;5272203;28;20048;-76
2021/12/19 13:15:09;;;;;;;;;;;;;;;7.48;93.64;102940.91;5278535;28;20111;-75
2021/12/19 13:17:48;;;;;;;5.53;4.35;;;;;;;7.42;93.67;102930.72;5285888;28;19912;-76
2021/12/19 13:20:25;;;;;;;5.85;5.10;;;;;;;7.42;93.71;102937.09;5285538;28;20024;-73
2021/12/19 13:23:01;;;;;;;7.15;5.63;;;;;;;7.42;93.09;102933.50;5288480;28;20112;-72
2021/12/19 13:25:52;;;;;;;8.50;5.70;;;;;;;7.53;92.92;102927.28;5285486;28;20025;-72
2021/12/19 13:28:24;;;;;;;10.43;6.53;;;;;;;7.53;93.25;102927.28;5284589;28;20032;-72
2021/12/19 13:30:56;;;;;;;8.68;5.40;;;;;;;7.48;92.53;102925.16;5284485;28;20027;-71
2021/12/19 13:33:30;;;;;;;6.90;5.80;;;;;;;7.46;92.94;102924.53;5285789;28;20550;-70
2021/12/19 13:36:01;;;;;;;6.35;5.53;;;;;;;7.39;93.00;102916.28;5284400;28;20404;-70
2021/12/19 13:38:32;;;;;;;8.10;5.82;;;;;;;7.37;92.54;102910.13;5285127;28;20025;-71
2021/12/19 13:41:05;;;;;;;10.48;6.78;;;;;;;7.43;92.74;102915.84;5288306;28;20029;-69
2021/12/19 13:43:39;;;;;;;9.05;6.82;;;;;;;7.43;92.30;102899.28;5284308;28;20027;-69
2021/12/19 13:46:14;;;;;;;9.05;6.82;;;;;;;7.39;92.08;102904.41;5283150;28;20029;-70
2021/12/19 13:48:54;;;;;;;11.93;6.57;;;;;;;7.31;91.41;102908.25;5282980;28;20048;-69
2021/12/19 13:51:28;;;;;;;8.07;5.80;;;;;;;7.31;91.30;102904.63;5283783;28;20033;-69
2021/12/19 13:54:03;;;;;;;9.48;6.45;;;;;;;7.31;92.07;102908.25;5276672;28;20017;-69
2021/12/19 13:56:36;;;;;;;11.80;6.05;;;;;;;7.31;92.28;102908.25;5274180;28;20114;-69
2021/12/19 13:59:20;;;;;;;8.70;6.25;;;;;;;7.35;92.16;102903.13;5284605;28;20119;-70
2021/12/19 14:01:51;;;;;;;14.30;6.50;;;;;;;7.30;91.88;102911.22;5284914;28;20464;-70
2021/12/19 14:04:28;;;;;;;11.23;8.80;;;;;;;7.33;92.00;102905.25;5283902;28;20024;-71
2021/12/19 14:07:05;;;;;;;9.40;6.63;;;;;;;7.34;91.62;102901.47;5284883;28;20035;-71
2021/12/19 14:09:49;;;;;;;8.10;5.68;;;;;;;7.32;92.02;102909.09;5284412;28;20154;-71
2021/12/19 14:15:11;;;;;;;10.02;6.25;;;;;;;7.34;91.86;102910.59;5267511;28;20041;-71
2021/12/19 14:17:44;;;;;;;6.97;6.20;;;;;;;7.33;91.50;102906.09;5262924;28;20513;-73
2021/12/19 14:20:15;;;;;;;13.88;6.80;;;;;;;7.39;91.41;102899.72;5263110;28;20051;-70
2021/12/19 14:22:48;;;;;;;10.13;6.30;;;;;;;7.36;91.76;102902.94;5263679;28;20025;-70
2021/12/19 14:25:26;;;;;;;26.98;18.15;;;;;;;7.42;92.32;102903.13;5262749;28;20051;-72
2021/12/19 14:27:57;;;;;;;9.68;6.65;;;;;;;7.39;91.87;102888.69;5283861;28;20087;-71
2021/12/19 14:30:28;;;;;;;12.63;7.78;;;;;;;7.42;91.74;102881.88;5284472;28;20024;-72
2021/12/19 14:33:00;;;;;;;39.63;31.38;;;;;;;7.46;91.13;102888.66;5283269;28;20036;-70
2021/12/19 14:35:36;;;;;;;13.73;9.45;;;;;;;7.52;89.73;102885.03;5283794;28;20048;-75
2021/12/19 14:38:13;;;;;;;11.02;7.45;;;;;;;7.54;89.82;102887.53;5284042;28;20028;-72
2021/12/19 14:40:45;;;;;;;12.00;5.97;;;;;;;7.59;90.60;102894.13;5283257;28;20020;-73
2021/12/19 14:43:19;;;;;;;8.93;5.60;;;;;;;7.56;90.05;102893.69;5283756;28;20020;-72
2021/12/19 14:45:57;;;;;;;7.68;5.13;;;;;;;7.51;90.87;102886.06;5282997;28;20379;-72
2021/12/19 14:48:40;;;;;;;8.32;5.43;;;;;;;7.50;91.25;102889.06;5287635;28;20025;-72
2021/12/19 14:51:17;;;;;;;41.58;33.40;;;;;;;7.48;90.49;102888.44;5283913;28;20510;-71
2021/12/19 14:53:58;;;;;;;14.38;7.93;;;;;;;7.54;91.43;102888.41;5282981;28;20058;-72
2021/12/19 14:56:29;;;;;;;9.85;5.93;;;;;;;7.46;91.07;102882.28;5283638;28;20051;-73
2021/12/19 14:59:04;;;;;;;7.22;4.75;;;;;;;7.51;90.80;102886.06;5284070;28;20032;-72
2021/12/19 15:01:37;;;;;;;7.57;5.25;;;;;;;7.50;90.51;102892.66;5281048;28;20421;-71
2021/12/19 15:04:12;;;;;;;14.10;10.95;;;;;;;7.51;91.54;102880.53;5281815;28;20024;-69
2021/12/19 15:06:46;;;;;;;9.18;6.78;;;;;;;7.50;90.97;102880.78;5274799;28;20025;-68
2021/12/19 15:09:19;;;;;;;9.88;6.22;;;;;;;7.41;91.38;102874.66;5282682;28;20047;-68
2021/12/19 15:11:50;;;;;;;8.50;5.43;;;;;;;7.51;91.79;102868.66;5283470;28;20020;-70
2021/12/19 15:14:22;;;;;;;6.72;4.45;;;;;;;7.45;90.54;102875.06;5282859;28;20024;-70
2021/12/19 15:16:53;;;;;;;6.63;4.32;;;;;;;7.51;90.72;102865.91;5282743;28;20028;-72
2021/12/19 15:19:25;;;;;;;10.82;5.13;;;;;;;7.55;90.31;102864.41;5281867;28;20106;-72
2021/12/19 15:21:56;;;;;;;7.50;4.55;;;;;;;7.48;90.46;102864.44;5286378;28;20024;-72
2021/12/19 15:24:30;;;;;;;7.57;4.18;;;;;;;7.35;90.10;102854.28;5282318;28;20181;-71
2021/12/19 15:27:02;;;;;;;13.98;9.25;;;;;;;7.43;90.42;102857.88;5280617;28;20043;-72
2021/12/19 15:29:33;;;;;;;8.80;5.18;;;;;;;7.46;89.79;102854.66;5279996;28;20036;-70
2021/12/19 15:32:07;;;;;;;6.65;4.70;;;;;;;7.36;89.86;102844.97;5280762;28;20039;-73
2021/12/19 15:34:39;;;;;;;6.00;4.88;;;;;;;7.47;89.87;102853.63;5280830;28;20464;-71
2021/12/19 15:37:10;;;;;;;7.55;4.28;;;;;;;7.37;89.60;102843.88;5280293;28;20142;-72
2021/12/19 15:39:42;;;;;;;6.90;3.50;;;;;;;7.36;89.01;102833.06;5284589;28;20571;-73
2021/12/19 15:42:13;;;;;;;7.47;4.85;;;;;;;7.42;92.12;102836.88;5280761;28;20499;-73
2021/12/19 15:44:44;;;;;;;5.28;4.15;;;;;;;7.58;90.38;102833.59;5282816;28;20028;-73
2021/12/19 15:47:16;;;;;;;5.50;4.07;;;;;;;7.37;89.07;102830.09;5282776;28;20025;-71
2021/12/19 15:49:47;;;;;;;7.55;3.80;;;;;;;7.25;89.57;102831.84;5280751;28;20052;-71
2021/12/19 15:52:21;;;;;;;5.32;4.03;;;;;;;7.15;90.02;102842.50;5282357;28;20032;-72
2021/12/19 15:54:53;;;;;;;9.73;7.28;;;;;;;7.21;90.46;102840.75;5283058;28;20077;-72
2021/12/19 15:57:24;;;;;;;5.28;3.75;;;;;;;7.10;89.00;102834.03;5281990;28;20464;-71
2021/12/19 15:59:59;;;;;;;4.45;3.28;;;;;;;7.15;88.75;102831.44;5282946;28;20028;-71
2021/12/19 16:02:30;;;;;;;4.85;3.53;;;;;;;7.08;89.03;102831.50;5281932;28;20103;-69
2021/12/19 16:05:02;;;;;;;3.72;3.30;;;;;;;7.08;89.23;102828.75;5281914;28;20159;-71
2021/12/19 16:07:34;;;;;;;9.23;7.07;;;;;;;7.17;89.50;102830.16;5282710;28;20079;-73
2021/12/19 16:10:07;;;;;;;9.98;7.30;;;;;;;7.17;88.83;102832.09;5277450;28;20032;-73
2021/12/19 16:12:39;;;;;;;21.42;18.85;;;;;;;7.17;89.81;102829.31;5279299;28;20028;-71
2021/12/19 16:15:13;;;;;;;23.52;20.38;;;;;;;7.16;90.00;102830.41;5281251;28;20028;-72
2021/12/19 16:17:49;;;;;;;11.57;9.20;;;;;;;7.10;89.79;102829.34;5281536;28;20111;-74
2021/12/19 16:20:21;;;;;;;;;;;;;;;7.26;89.77;102825.28;5285979;28;20020;-73
2021/12/19 16:22:53;;;;;;;6.03;4.28;;;;;;;7.17;89.80;102834.84;5286277;28;20392;-74
2021/12/19 16:25:30;;;;;;;7.10;4.78;;;;;;;7.14;90.17;102827.84;5283918;28;20107;-68
2021/12/19 16:28:03;;;;;;;6.32;4.05;;;;;;;7.15;90.59;102828.69;5286095;28;20099;-72
2021/12/19 16:30:34;;;;;;;8.32;7.22;;;;;;;7.17;90.13;102823.81;5286548;28;20043;-71
2021/12/19 16:33:06;;;;;;;7.32;5.68;;;;;;;7.19;90.79;102828.03;5286166;28;20028;-69
2021/12/19 16:35:38;;;;;;;10.30;6.13;;;;;;;7.22;90.83;102821.25;5285949;28;20106;-72
2021/12/19 16:38:13;;;;;;;8.27;4.70;;;;;;;7.15;90.41;102831.44;5286538;28;20452;-71
2021/12/19 16:40:45;;;;;;;7.30;4.78;;;;;;;7.10;90.75;102828.50;5285701;28;20027;-72
2021/12/19 16:43:34;;;;;;;9.10;5.22;;;;;;;7.08;90.93;102831.50;5286612;28;20020;-71
2021/12/19 16:46:12;;;;;;;7.63;5.40;;;;;;;7.07;91.58;102812.38;5286378;28;20024;-71
2021/12/19 16:48:43;;;;;;;6.68;4.63;;;;;;;7.05;91.80;102809.00;5265229;28;20021;-73
2021/12/19 16:51:14;;;;;;;8.73;4.53;;;;;;;6.98;91.60;102811.78;5277728;28;20037;-72
2021/12/19 16:53:46;;;;;;;7.57;5.18;;;;;;;6.93;91.69;102812.44;5285540;28;20021;-71
2021/12/19 16:56:17;;;;;;;79.97;65.50;;;;;;;6.99;92.48;102819.00;5285578;28;20028;-72
2021/12/19 16:58:48;;;;;;;7.07;5.25;;;;;;;7.01;92.10;102810.50;5285381;28;20032;-72
2021/12/19 17:01:21;;;;;;;7.20;5.00;;;;;;;6.99;92.45;102807.13;5285539;28;20028;-71
2021/12/19 17:03:52;;;;;;;6.63;5.15;;;;;;;7.00;92.44;102814.31;5289006;28;20017;-72
2021/12/19 17:06:24;;;;;;;5.72;5.13;;;;;;;7.01;92.62;102805.84;5285455;28;20024;-73
2021/12/19 17:08:56;;;;;;;152.65;115.22;;;;;;;6.98;93.22;102811.78;5284443;28;20043;-72
2021/12/19 17:11:32;;;;;;;36.45;31.98;;;;;;;7.02;93.86;102809.44;5285855;28;20048;-73
2021/12/19 17:14:15;;;;;;;14.90;11.18;;;;;;;7.00;93.75;102812.41;5265651;28;20480;-72
2021/12/19 17:16:47;;;;;;;17.00;13.38;;;;;;;6.99;93.36;102813.47;5285884;28;20040;-72
2021/12/19 17:19:19;;;;;;;10.20;6.93;;;;;;;6.97;94.03;102813.69;5286098;28;20028;-72
2021/12/19 17:21:52;;;;;;;8.98;6.65;;;;;;;7.02;94.12;102814.97;5288929;28;20433;-71
2021/12/19 17:24:24;;;;;;;9.48;6.15;;;;;;;7.00;93.40;102811.56;5286312;28;20469;-73
2021/12/19 17:26:55;;;;;;;13.20;7.97;;;;;;;7.03;94.02;102806.47;5285488;28;20029;-71
2021/12/19 17:29:27;;;;;;;11.38;8.00;;;;;;;6.96;94.00;102811.16;5284790;28;20564;-71
